sensor_id;sensor_type;location;lat;lon;timestamp;P1;durP1;ratioP1;P2;durP2;ratioP2
83020;SDS011;72837;47.418;19.394;2023-09-19T00:00:49;10.50;;;4.82;;
83020;SDS011;72837;47.418;19.394;2023-09-19T00:03:16;11.57;;;5.75;;
83020;SDS011;72837;47.418;19.394;2023-09-19T00:05:44;12.65;;;4.80;;
83020;SDS011;72837;47.418;19.394;2023-09-19T00:08:12;10.52;;;5.22;;
83020;SDS011;72837;47.418;19.394;2023-09-19T00:10:42;12.10;;;5.10;;
83020;SDS011;72837;47.418;19.394;2023-09-19T00:13:10;12.75;;;5.40;;
83020;SDS011;72837;47.418;19.394;2023-09-19T00:15:46;12.60;;;4.95;;
83020;SDS011;72837;47.418;19.394;2023-09-19T00:18:18;11.70;;;4.97;;
83020;SDS011;72837;47.418;19.394;2023-09-19T00:20:48;16.83;;;5.43;;
83020;SDS011;72837;47.418;19.394;2023-09-19T00:23:16;15.48;;;5.18;;
83020;SDS011;72837;47.418;19.394;2023-09-19T00:25:47;12.90;;;4.95;;
83020;SDS011;72837;47.418;19.394;2023-09-19T00:28:15;12.93;;;5.00;;
83020;SDS011;72837;47.418;19.394;2023-09-19T00:30:44;14.02;;;5.38;;
83020;SDS011;72837;47.418;19.394;2023-09-19T00:33:11;12.70;;;5.53;;
83020;SDS011;72837;47.418;19.394;2023-09-19T00:35:47;11.20;;;4.90;;
83020;SDS011;72837;47.418;19.394;2023-09-19T00:38:22;13.63;;;5.18;;
83020;SDS011;72837;47.418;19.394;2023-09-19T00:40:54;12.02;;;5.03;;
83020;SDS011;72837;47.418;19.394;2023-09-19T00:43:26;12.02;;;5.35;;
83020;SDS011;72837;47.418;19.394;2023-09-19T00:45:55;13.27;;;5.47;;
83020;SDS011;72837;47.418;19.394;2023-09-19T00:48:23;11.90;;;5.28;;
83020;SDS011;72837;47.418;19.394;2023-09-19T00:50:57;12.40;;;6.45;;
83020;SDS011;72837;47.418;19.394;2023-09-19T00:53:28;9.27;;;4.43;;
83020;SDS011;72837;47.418;19.394;2023-09-19T00:55:58;12.00;;;5.07;;
83020;SDS011;72837;47.418;19.394;2023-09-19T00:58:25;15.98;;;5.15;;
83020;SDS011;72837;47.418;19.394;2023-09-19T01:03:27;10.85;;;5.45;;
83020;SDS011;72837;47.418;19.394;2023-09-19T01:08:22;13.60;;;5.57;;
83020;SDS011;72837;47.418;19.394;2023-09-19T01:10:54;13.27;;;5.07;;
83020;SDS011;72837;47.418;19.394;2023-09-19T01:16:32;13.73;;;5.05;;
83020;SDS011;72837;47.418;19.394;2023-09-19T01:30:11;12.27;;;5.88;;
83020;SDS011;72837;47.418;19.394;2023-09-19T01:32:41;11.80;;;5.65;;
83020;SDS011;72837;47.418;19.394;2023-09-19T01:35:10;11.20;;;5.30;;
83020;SDS011;72837;47.418;19.394;2023-09-19T01:37:40;15.13;;;5.50;;
83020;SDS011;72837;47.418;19.394;2023-09-19T01:40:12;12.82;;;5.95;;
83020;SDS011;72837;47.418;19.394;2023-09-19T01:48:54;11.15;;;4.90;;
83020;SDS011;72837;47.418;19.394;2023-09-19T01:51:37;15.35;;;5.28;;
83020;SDS011;72837;47.418;19.394;2023-09-19T01:54:11;11.68;;;5.50;;
83020;SDS011;72837;47.418;19.394;2023-09-19T01:56:48;12.45;;;4.82;;
83020;SDS011;72837;47.418;19.394;2023-09-19T01:59:27;11.98;;;5.22;;
83020;SDS011;72837;47.418;19.394;2023-09-19T02:02:00;11.23;;;5.13;;
83020;SDS011;72837;47.418;19.394;2023-09-19T02:04:29;10.38;;;5.13;;
83020;SDS011;72837;47.418;19.394;2023-09-19T02:07:00;11.10;;;5.20;;
83020;SDS011;72837;47.418;19.394;2023-09-19T02:09:27;13.70;;;5.55;;
83020;SDS011;72837;47.418;19.394;2023-09-19T02:11:55;11.63;;;5.63;;
83020;SDS011;72837;47.418;19.394;2023-09-19T02:14:22;13.57;;;5.38;;
83020;SDS011;72837;47.418;19.394;2023-09-19T02:16:50;11.38;;;5.60;;
83020;SDS011;72837;47.418;19.394;2023-09-19T02:19:17;13.02;;;5.38;;
83020;SDS011;72837;47.418;19.394;2023-09-19T02:21:44;11.07;;;4.90;;
83020;SDS011;72837;47.418;19.394;2023-09-19T02:24:12;11.90;;;5.32;;
83020;SDS011;72837;47.418;19.394;2023-09-19T02:26:40;9.90;;;5.15;;
83020;SDS011;72837;47.418;19.394;2023-09-19T02:29:08;16.92;;;6.05;;
83020;SDS011;72837;47.418;19.394;2023-09-19T02:31:40;12.25;;;5.20;;
83020;SDS011;72837;47.418;19.394;2023-09-19T02:34:08;11.35;;;5.50;;
83020;SDS011;72837;47.418;19.394;2023-09-19T02:36:36;15.52;;;5.18;;
83020;SDS011;72837;47.418;19.394;2023-09-19T02:39:03;17.33;;;6.35;;
83020;SDS011;72837;47.418;19.394;2023-09-19T02:41:32;13.02;;;5.40;;
83020;SDS011;72837;47.418;19.394;2023-09-19T02:44:00;13.75;;;5.70;;
83020;SDS011;72837;47.418;19.394;2023-09-19T02:48:55;14.70;;;5.80;;
83020;SDS011;72837;47.418;19.394;2023-09-19T02:51:22;12.27;;;5.30;;
83020;SDS011;72837;47.418;19.394;2023-09-19T02:53:50;14.52;;;5.25;;
83020;SDS011;72837;47.418;19.394;2023-09-19T02:56:21;11.80;;;5.38;;
83020;SDS011;72837;47.418;19.394;2023-09-19T02:58:49;12.18;;;5.43;;
83020;SDS011;72837;47.418;19.394;2023-09-19T03:01:17;13.25;;;5.68;;
83020;SDS011;72837;47.418;19.394;2023-09-19T03:03:45;11.88;;;5.20;;
83020;SDS011;72837;47.418;19.394;2023-09-19T03:06:13;14.68;;;5.47;;
83020;SDS011;72837;47.418;19.394;2023-09-19T03:08:42;16.33;;;5.60;;
83020;SDS011;72837;47.418;19.394;2023-09-19T03:11:10;14.68;;;5.50;;
83020;SDS011;72837;47.418;19.394;2023-09-19T03:13:41;11.02;;;5.53;;
83020;SDS011;72837;47.418;19.394;2023-09-19T03:16:10;11.13;;;5.68;;
83020;SDS011;72837;47.418;19.394;2023-09-19T03:18:38;10.98;;;5.43;;
83020;SDS011;72837;47.418;19.394;2023-09-19T03:21:06;11.85;;;5.80;;
83020;SDS011;72837;47.418;19.394;2023-09-19T03:23:33;14.70;;;6.15;;
83020;SDS011;72837;47.418;19.394;2023-09-19T03:26:00;14.32;;;5.28;;
83020;SDS011;72837;47.418;19.394;2023-09-19T03:28:32;11.52;;;5.60;;
83020;SDS011;72837;47.418;19.394;2023-09-19T03:31:06;11.20;;;5.10;;
83020;SDS011;72837;47.418;19.394;2023-09-19T03:33:35;13.27;;;5.40;;
83020;SDS011;72837;47.418;19.394;2023-09-19T03:36:04;11.38;;;5.28;;
83020;SDS011;72837;47.418;19.394;2023-09-19T03:38:33;13.93;;;5.40;;
83020;SDS011;72837;47.418;19.394;2023-09-19T03:41:02;10.63;;;5.40;;
83020;SDS011;72837;47.418;19.394;2023-09-19T03:43:29;12.30;;;5.70;;
83020;SDS011;72837;47.418;19.394;2023-09-19T03:46:02;11.07;;;5.47;;
83020;SDS011;72837;47.418;19.394;2023-09-19T03:48:37;12.43;;;5.28;;
83020;SDS011;72837;47.418;19.394;2023-09-19T03:51:04;12.50;;;5.75;;
83020;SDS011;72837;47.418;19.394;2023-09-19T03:53:31;12.43;;;6.28;;
83020;SDS011;72837;47.418;19.394;2023-09-19T03:55:59;13.13;;;5.82;;
83020;SDS011;72837;47.418;19.394;2023-09-19T03:58:29;12.43;;;5.65;;
83020;SDS011;72837;47.418;19.394;2023-09-19T04:00:56;11.45;;;5.47;;
83020;SDS011;72837;47.418;19.394;2023-09-19T04:03:27;13.90;;;6.18;;
83020;SDS011;72837;47.418;19.394;2023-09-19T04:06:02;15.48;;;6.00;;
83020;SDS011;72837;47.418;19.394;2023-09-19T04:08:29;13.93;;;5.85;;
83020;SDS011;72837;47.418;19.394;2023-09-19T04:10:56;14.35;;;5.65;;
83020;SDS011;72837;47.418;19.394;2023-09-19T04:13:24;15.18;;;6.25;;
83020;SDS011;72837;47.418;19.394;2023-09-19T04:15:52;12.48;;;5.72;;
83020;SDS011;72837;47.418;19.394;2023-09-19T04:18:19;10.93;;;5.78;;
83020;SDS011;72837;47.418;19.394;2023-09-19T04:20:48;10.43;;;5.30;;
83020;SDS011;72837;47.418;19.394;2023-09-19T04:23:18;14.00;;;5.95;;
83020;SDS011;72837;47.418;19.394;2023-09-19T04:25:49;14.18;;;6.55;;
83020;SDS011;72837;47.418;19.394;2023-09-19T04:30:44;15.88;;;6.55;;
83020;SDS011;72837;47.418;19.394;2023-09-19T04:33:11;13.90;;;6.07;;
83020;SDS011;72837;47.418;19.394;2023-09-19T04:35:41;14.00;;;6.32;;
83020;SDS011;72837;47.418;19.394;2023-09-19T04:38:11;14.57;;;6.60;;
83020;SDS011;72837;47.418;19.394;2023-09-19T04:40:38;13.50;;;6.07;;
83020;SDS011;72837;47.418;19.394;2023-09-19T04:43:08;14.32;;;6.55;;
83020;SDS011;72837;47.418;19.394;2023-09-19T04:45:35;14.75;;;6.25;;
83020;SDS011;72837;47.418;19.394;2023-09-19T04:48:05;14.70;;;6.43;;
83020;SDS011;72837;47.418;19.394;2023-09-19T04:50:35;14.50;;;6.63;;
83020;SDS011;72837;47.418;19.394;2023-09-19T04:53:03;14.98;;;6.40;;
83020;SDS011;72837;47.418;19.394;2023-09-19T04:57:59;14.05;;;6.50;;
83020;SDS011;72837;47.418;19.394;2023-09-19T05:00:27;12.93;;;5.63;;
83020;SDS011;72837;47.418;19.394;2023-09-19T05:02:57;12.77;;;6.05;;
83020;SDS011;72837;47.418;19.394;2023-09-19T05:05:25;11.65;;;6.05;;
83020;SDS011;72837;47.418;19.394;2023-09-19T05:07:53;12.60;;;6.30;;
83020;SDS011;72837;47.418;19.394;2023-09-19T05:10:21;12.25;;;5.85;;
83020;SDS011;72837;47.418;19.394;2023-09-19T05:12:48;13.52;;;6.25;;
83020;SDS011;72837;47.418;19.394;2023-09-19T05:15:20;12.07;;;5.95;;
83020;SDS011;72837;47.418;19.394;2023-09-19T05:20:22;15.63;;;6.75;;
83020;SDS011;72837;47.418;19.394;2023-09-19T05:23:05;15.85;;;6.80;;
83020;SDS011;72837;47.418;19.394;2023-09-19T05:25:38;17.02;;;6.53;;
83020;SDS011;72837;47.418;19.394;2023-09-19T05:28:07;11.82;;;6.40;;
83020;SDS011;72837;47.418;19.394;2023-09-19T05:30:36;13.75;;;6.15;;
83020;SDS011;72837;47.418;19.394;2023-09-19T05:33:05;11.95;;;6.00;;
83020;SDS011;72837;47.418;19.394;2023-09-19T05:35:33;13.23;;;7.30;;
83020;SDS011;72837;47.418;19.394;2023-09-19T05:38:00;16.98;;;6.25;;
83020;SDS011;72837;47.418;19.394;2023-09-19T05:40:27;14.43;;;6.57;;
83020;SDS011;72837;47.418;19.394;2023-09-19T05:42:55;15.88;;;6.82;;
83020;SDS011;72837;47.418;19.394;2023-09-19T05:45:22;12.35;;;6.70;;
83020;SDS011;72837;47.418;19.394;2023-09-19T05:47:49;17.25;;;7.22;;
83020;SDS011;72837;47.418;19.394;2023-09-19T05:50:22;11.98;;;6.30;;
83020;SDS011;72837;47.418;19.394;2023-09-19T05:52:52;14.65;;;6.70;;
83020;SDS011;72837;47.418;19.394;2023-09-19T05:55:20;13.35;;;6.20;;
83020;SDS011;72837;47.418;19.394;2023-09-19T05:57:51;13.52;;;5.40;;
83020;SDS011;72837;47.418;19.394;2023-09-19T06:00:19;12.13;;;5.38;;
83020;SDS011;72837;47.418;19.394;2023-09-19T06:02:59;9.48;;;3.92;;
83020;SDS011;72837;47.418;19.394;2023-09-19T06:05:27;9.73;;;3.53;;
83020;SDS011;72837;47.418;19.394;2023-09-19T06:07:54;6.85;;;2.78;;
83020;SDS011;72837;47.418;19.394;2023-09-19T06:10:22;7.05;;;1.90;;
83020;SDS011;72837;47.418;19.394;2023-09-19T06:12:51;8.57;;;1.50;;
83020;SDS011;72837;47.418;19.394;2023-09-19T06:17:55;7.07;;;1.73;;
83020;SDS011;72837;47.418;19.394;2023-09-19T06:20:24;4.88;;;1.48;;
83020;SDS011;72837;47.418;19.394;2023-09-19T06:22:53;6.43;;;1.40;;
83020;SDS011;72837;47.418;19.394;2023-09-19T06:25:21;6.32;;;1.30;;
83020;SDS011;72837;47.418;19.394;2023-09-19T06:27:50;4.95;;;1.20;;
83020;SDS011;72837;47.418;19.394;2023-09-19T06:30:21;6.28;;;1.50;;
83020;SDS011;72837;47.418;19.394;2023-09-19T06:32:58;5.28;;;1.30;;
83020;SDS011;72837;47.418;19.394;2023-09-19T06:35:26;4.53;;;1.13;;
83020;SDS011;72837;47.418;19.394;2023-09-19T06:37:56;4.10;;;1.10;;
83020;SDS011;72837;47.418;19.394;2023-09-19T06:40:25;3.60;;;1.10;;
83020;SDS011;72837;47.418;19.394;2023-09-19T06:42:52;4.03;;;0.98;;
83020;SDS011;72837;47.418;19.394;2023-09-19T06:45:20;6.68;;;1.33;;
83020;SDS011;72837;47.418;19.394;2023-09-19T06:47:50;3.75;;;0.90;;
83020;SDS011;72837;47.418;19.394;2023-09-19T06:50:19;4.53;;;1.00;;
83020;SDS011;72837;47.418;19.394;2023-09-19T06:52:51;3.20;;;0.82;;
83020;SDS011;72837;47.418;19.394;2023-09-19T06:55:21;4.25;;;0.90;;
83020;SDS011;72837;47.418;19.394;2023-09-19T06:57:52;4.80;;;1.23;;
83020;SDS011;72837;47.418;19.394;2023-09-19T07:00:21;3.92;;;1.00;;
83020;SDS011;72837;47.418;19.394;2023-09-19T07:05:24;3.50;;;1.00;;
83020;SDS011;72837;47.418;19.394;2023-09-19T07:07:52;5.82;;;1.10;;
83020;SDS011;72837;47.418;19.394;2023-09-19T07:10:21;3.90;;;1.02;;
83020;SDS011;72837;47.418;19.394;2023-09-19T07:13:00;4.75;;;1.35;;
83020;SDS011;72837;47.418;19.394;2023-09-19T07:15:29;5.03;;;1.20;;
83020;SDS011;72837;47.418;19.394;2023-09-19T07:18:03;5.22;;;1.30;;
83020;SDS011;72837;47.418;19.394;2023-09-19T07:20:31;4.07;;;1.15;;
83020;SDS011;72837;47.418;19.394;2023-09-19T07:22:59;2.90;;;0.80;;
83020;SDS011;72837;47.418;19.394;2023-09-19T07:25:27;4.65;;;1.17;;
83020;SDS011;72837;47.418;19.394;2023-09-19T07:27:55;4.60;;;1.10;;
83020;SDS011;72837;47.418;19.394;2023-09-19T07:30:27;4.35;;;1.08;;
83020;SDS011;72837;47.418;19.394;2023-09-19T07:32:54;4.05;;;1.10;;
83020;SDS011;72837;47.418;19.394;2023-09-19T07:35:22;4.10;;;1.00;;
83020;SDS011;72837;47.418;19.394;2023-09-19T07:37:49;5.10;;;1.27;;
83020;SDS011;72837;47.418;19.394;2023-09-19T07:40:19;4.40;;;1.30;;
83020;SDS011;72837;47.418;19.394;2023-09-19T07:42:47;4.68;;;1.48;;
83020;SDS011;72837;47.418;19.394;2023-09-19T07:45:15;3.75;;;1.10;;
83020;SDS011;72837;47.418;19.394;2023-09-19T07:47:47;3.55;;;1.10;;
83020;SDS011;72837;47.418;19.394;2023-09-19T07:50:16;5.18;;;1.67;;
83020;SDS011;72837;47.418;19.394;2023-09-19T07:52:48;5.50;;;1.50;;
83020;SDS011;72837;47.418;19.394;2023-09-19T07:55:19;4.72;;;1.65;;
83020;SDS011;72837;47.418;19.394;2023-09-19T07:57:53;4.32;;;1.42;;
83020;SDS011;72837;47.418;19.394;2023-09-19T08:00:21;3.03;;;1.00;;
83020;SDS011;72837;47.418;19.394;2023-09-19T08:02:48;3.13;;;1.10;;
83020;SDS011;72837;47.418;19.394;2023-09-19T08:05:24;5.03;;;1.10;;
83020;SDS011;72837;47.418;19.394;2023-09-19T08:07:52;3.40;;;0.98;;
83020;SDS011;72837;47.418;19.394;2023-09-19T08:10:23;4.63;;;1.30;;
83020;SDS011;72837;47.418;19.394;2023-09-19T08:12:55;5.35;;;1.27;;
83020;SDS011;72837;47.418;19.394;2023-09-19T08:15:25;3.55;;;0.93;;
83020;SDS011;72837;47.418;19.394;2023-09-19T08:17:52;4.15;;;0.90;;
83020;SDS011;72837;47.418;19.394;2023-09-19T08:20:20;5.38;;;0.90;;
83020;SDS011;72837;47.418;19.394;2023-09-19T08:25:16;2.90;;;0.70;;
83020;SDS011;72837;47.418;19.394;2023-09-19T08:27:45;3.22;;;1.00;;
83020;SDS011;72837;47.418;19.394;2023-09-19T08:30:16;3.28;;;0.80;;
83020;SDS011;72837;47.418;19.394;2023-09-19T08:32:44;3.85;;;0.90;;
83020;SDS011;72837;47.418;19.394;2023-09-19T08:35:13;3.22;;;1.00;;
83020;SDS011;72837;47.418;19.394;2023-09-19T08:37:41;3.90;;;0.95;;
83020;SDS011;72837;47.418;19.394;2023-09-19T08:40:12;4.25;;;1.00;;
83020;SDS011;72837;47.418;19.394;2023-09-19T08:42:49;3.85;;;1.00;;
83020;SDS011;72837;47.418;19.394;2023-09-19T08:45:17;3.70;;;1.00;;
83020;SDS011;72837;47.418;19.394;2023-09-19T08:50:49;5.28;;;1.40;;
83020;SDS011;72837;47.418;19.394;2023-09-19T08:53:26;4.82;;;1.27;;
83020;SDS011;72837;47.418;19.394;2023-09-19T08:56:14;5.95;;;1.05;;
83020;SDS011;72837;47.418;19.394;2023-09-19T08:58:45;3.63;;;1.15;;
83020;SDS011;72837;47.418;19.394;2023-09-19T09:01:15;4.70;;;1.08;;
83020;SDS011;72837;47.418;19.394;2023-09-19T09:03:43;4.85;;;1.17;;
83020;SDS011;72837;47.418;19.394;2023-09-19T09:06:15;4.72;;;0.90;;
83020;SDS011;72837;47.418;19.394;2023-09-19T09:08:44;3.80;;;1.20;;
83020;SDS011;72837;47.418;19.394;2023-09-19T09:11:15;5.88;;;1.30;;
83020;SDS011;72837;47.418;19.394;2023-09-19T09:13:44;5.93;;;1.20;;
83020;SDS011;72837;47.418;19.394;2023-09-19T09:16:13;4.95;;;1.40;;
83020;SDS011;72837;47.418;19.394;2023-09-19T09:18:46;5.78;;;1.45;;
83020;SDS011;72837;47.418;19.394;2023-09-19T09:21:24;5.35;;;1.13;;
83020;SDS011;72837;47.418;19.394;2023-09-19T09:23:53;5.72;;;1.60;;
83020;SDS011;72837;47.418;19.394;2023-09-19T09:32:23;5.15;;;1.55;;
83020;SDS011;72837;47.418;19.394;2023-09-19T09:34:53;5.07;;;1.98;;
83020;SDS011;72837;47.418;19.394;2023-09-19T09:37:28;6.57;;;1.55;;
83020;SDS011;72837;47.418;19.394;2023-09-19T09:39:58;6.07;;;1.70;;
83020;SDS011;72837;47.418;19.394;2023-09-19T09:42:45;5.88;;;2.10;;
83020;SDS011;72837;47.418;19.394;2023-09-19T09:48:04;6.68;;;1.55;;
83020;SDS011;72837;47.418;19.394;2023-09-19T09:50:48;5.25;;;1.75;;
83020;SDS011;72837;47.418;19.394;2023-09-19T09:53:22;6.45;;;1.50;;
83020;SDS011;72837;47.418;19.394;2023-09-19T09:56:05;5.03;;;1.40;;
83020;SDS011;72837;47.418;19.394;2023-09-19T09:58:50;4.68;;;1.25;;
83020;SDS011;72837;47.418;19.394;2023-09-19T10:01:23;5.25;;;1.20;;
83020;SDS011;72837;47.418;19.394;2023-09-19T10:03:59;6.47;;;1.50;;
83020;SDS011;72837;47.418;19.394;2023-09-19T10:06:39;5.60;;;1.50;;
83020;SDS011;72837;47.418;19.394;2023-09-19T10:09:14;4.70;;;1.13;;
83020;SDS011;72837;47.418;19.394;2023-09-19T10:11:44;4.22;;;1.20;;
83020;SDS011;72837;47.418;19.394;2023-09-19T10:14:16;4.32;;;1.33;;
83020;SDS011;72837;47.418;19.394;2023-09-19T10:16:48;6.05;;;1.23;;
83020;SDS011;72837;47.418;19.394;2023-09-19T10:19:29;3.88;;;1.10;;
83020;SDS011;72837;47.418;19.394;2023-09-19T10:22:01;5.47;;;1.20;;
83020;SDS011;72837;47.418;19.394;2023-09-19T10:24:31;4.15;;;1.38;;
83020;SDS011;72837;47.418;19.394;2023-09-19T10:27:06;3.83;;;1.23;;
83020;SDS011;72837;47.418;19.394;2023-09-19T10:29:39;4.30;;;1.10;;
83020;SDS011;72837;47.418;19.394;2023-09-19T10:32:06;3.90;;;1.10;;
83020;SDS011;72837;47.418;19.394;2023-09-19T10:34:36;5.70;;;1.42;;
83020;SDS011;72837;47.418;19.394;2023-09-19T10:37:08;6.22;;;1.60;;
83020;SDS011;72837;47.418;19.394;2023-09-19T10:39:39;4.03;;;1.10;;
83020;SDS011;72837;47.418;19.394;2023-09-19T10:42:07;2.83;;;0.85;;
83020;SDS011;72837;47.418;19.394;2023-09-19T10:44:42;5.20;;;1.10;;
83020;SDS011;72837;47.418;19.394;2023-09-19T10:47:12;3.42;;;1.00;;
83020;SDS011;72837;47.418;19.394;2023-09-19T10:49:44;4.65;;;1.20;;
83020;SDS011;72837;47.418;19.394;2023-09-19T10:52:17;3.70;;;0.95;;
83020;SDS011;72837;47.418;19.394;2023-09-19T10:54:50;6.22;;;1.48;;
83020;SDS011;72837;47.418;19.394;2023-09-19T10:57:22;5.13;;;1.67;;
83020;SDS011;72837;47.418;19.394;2023-09-19T11:00:00;5.18;;;1.50;;
83020;SDS011;72837;47.418;19.394;2023-09-19T11:03:33;4.28;;;1.40;;
83020;SDS011;72837;47.418;19.394;2023-09-19T11:05:39;4.57;;;1.25;;
83020;SDS011;72837;47.418;19.394;2023-09-19T11:08:07;3.95;;;1.23;;
83020;SDS011;72837;47.418;19.394;2023-09-19T11:10:47;3.88;;;1.30;;
83020;SDS011;72837;47.418;19.394;2023-09-19T11:13:28;4.55;;;1.50;;
83020;SDS011;72837;47.418;19.394;2023-09-19T11:26:43;5.05;;;1.40;;
83020;SDS011;72837;47.418;19.394;2023-09-19T11:29:24;6.47;;;1.35;;
83020;SDS011;72837;47.418;19.394;2023-09-19T11:31:53;7.40;;;1.70;;
83020;SDS011;72837;47.418;19.394;2023-09-19T11:34:38;9.57;;;1.88;;
83020;SDS011;72837;47.418;19.394;2023-09-19T11:39:38;7.80;;;2.20;;
83020;SDS011;72837;47.418;19.394;2023-09-19T11:48:25;5.82;;;2.40;;
83020;SDS011;72837;47.418;19.394;2023-09-19T11:50:54;6.45;;;2.30;;
83020;SDS011;72837;47.418;19.394;2023-09-19T11:55:49;6.13;;;2.13;;
83020;SDS011;72837;47.418;19.394;2023-09-19T11:58:19;5.25;;;1.90;;
83020;SDS011;72837;47.418;19.394;2023-09-19T12:00:47;4.80;;;1.95;;
83020;SDS011;72837;47.418;19.394;2023-09-19T12:03:24;6.40;;;1.83;;
83020;SDS011;72837;47.418;19.394;2023-09-19T12:05:58;4.72;;;1.67;;
83020;SDS011;72837;47.418;19.394;2023-09-19T12:08:26;6.95;;;1.85;;
83020;SDS011;72837;47.418;19.394;2023-09-19T12:10:54;7.03;;;1.27;;
83020;SDS011;72837;47.418;19.394;2023-09-19T12:13:23;4.72;;;1.10;;
83020;SDS011;72837;47.418;19.394;2023-09-19T12:15:51;7.25;;;1.10;;
83020;SDS011;72837;47.418;19.394;2023-09-19T12:18:28;5.20;;;1.20;;
83020;SDS011;72837;47.418;19.394;2023-09-19T12:20:56;2.78;;;0.98;;
83020;SDS011;72837;47.418;19.394;2023-09-19T12:23:31;5.43;;;1.10;;
83020;SDS011;72837;47.418;19.394;2023-09-19T12:26:01;4.30;;;1.13;;
83020;SDS011;72837;47.418;19.394;2023-09-19T12:28:44;3.70;;;1.23;;
83020;SDS011;72837;47.418;19.394;2023-09-19T12:31:11;4.60;;;1.08;;
83020;SDS011;72837;47.418;19.394;2023-09-19T12:33:39;4.20;;;1.20;;
83020;SDS011;72837;47.418;19.394;2023-09-19T12:36:19;5.05;;;1.02;;
83020;SDS011;72837;47.418;19.394;2023-09-19T12:38:58;5.15;;;1.17;;
83020;SDS011;72837;47.418;19.394;2023-09-19T12:41:26;4.15;;;0.98;;
83020;SDS011;72837;47.418;19.394;2023-09-19T12:43:53;6.03;;;1.25;;
83020;SDS011;72837;47.418;19.394;2023-09-19T12:51:46;8.07;;;1.50;;
83020;SDS011;72837;47.418;19.394;2023-09-19T12:54:15;6.20;;;1.08;;
83020;SDS011;72837;47.418;19.394;2023-09-19T12:56:44;6.82;;;1.38;;
83020;SDS011;72837;47.418;19.394;2023-09-19T12:59:14;3.17;;;1.10;;
83020;SDS011;72837;47.418;19.394;2023-09-19T13:01:42;5.07;;;1.20;;
83020;SDS011;72837;47.418;19.394;2023-09-19T13:06:46;5.60;;;1.00;;
83020;SDS011;72837;47.418;19.394;2023-09-19T13:09:22;5.38;;;1.17;;
83020;SDS011;72837;47.418;19.394;2023-09-19T13:12:02;7.75;;;1.23;;
83020;SDS011;72837;47.418;19.394;2023-09-19T13:14:30;4.40;;;0.90;;
83020;SDS011;72837;47.418;19.394;2023-09-19T13:17:07;5.53;;;1.33;;
83020;SDS011;72837;47.418;19.394;2023-09-19T13:19:46;6.28;;;1.40;;
83020;SDS011;72837;47.418;19.394;2023-09-19T13:22:40;4.18;;;1.20;;
83020;SDS011;72837;47.418;19.394;2023-09-19T13:25:11;5.50;;;1.42;;
83020;SDS011;72837;47.418;19.394;2023-09-19T13:27:50;4.57;;;1.30;;
83020;SDS011;72837;47.418;19.394;2023-09-19T13:30:22;6.15;;;1.45;;
83020;SDS011;72837;47.418;19.394;2023-09-19T13:33:05;6.50;;;1.70;;
83020;SDS011;72837;47.418;19.394;2023-09-19T13:35:34;4.82;;;1.30;;
83020;SDS011;72837;47.418;19.394;2023-09-19T13:38:01;6.63;;;1.38;;
83020;SDS011;72837;47.418;19.394;2023-09-19T13:40:28;5.32;;;1.40;;
83020;SDS011;72837;47.418;19.394;2023-09-19T13:43:02;4.20;;;1.27;;
83020;SDS011;72837;47.418;19.394;2023-09-19T13:45:29;4.22;;;1.35;;
83020;SDS011;72837;47.418;19.394;2023-09-19T13:47:57;5.72;;;1.40;;
83020;SDS011;72837;47.418;19.394;2023-09-19T13:50:27;4.93;;;1.27;;
83020;SDS011;72837;47.418;19.394;2023-09-19T13:52:55;5.25;;;1.30;;
83020;SDS011;72837;47.418;19.394;2023-09-19T13:55:24;4.97;;;1.40;;
83020;SDS011;72837;47.418;19.394;2023-09-19T13:57:53;6.25;;;1.40;;
83020;SDS011;72837;47.418;19.394;2023-09-19T14:00:22;5.85;;;1.30;;
83020;SDS011;72837;47.418;19.394;2023-09-19T14:02:50;5.45;;;1.50;;
83020;SDS011;72837;47.418;19.394;2023-09-19T14:05:18;5.63;;;1.50;;
83020;SDS011;72837;47.418;19.394;2023-09-19T14:07:47;7.20;;;1.60;;
83020;SDS011;72837;47.418;19.394;2023-09-19T14:10:15;4.47;;;1.33;;
83020;SDS011;72837;47.418;19.394;2023-09-19T14:12:44;4.13;;;1.30;;
83020;SDS011;72837;47.418;19.394;2023-09-19T14:15:12;5.30;;;1.40;;
83020;SDS011;72837;47.418;19.394;2023-09-19T14:20:12;4.20;;;1.33;;
83020;SDS011;72837;47.418;19.394;2023-09-19T14:22:42;4.82;;;1.30;;
83020;SDS011;72837;47.418;19.394;2023-09-19T14:25:09;5.13;;;1.50;;
83020;SDS011;72837;47.418;19.394;2023-09-19T14:27:36;6.32;;;1.73;;
83020;SDS011;72837;47.418;19.394;2023-09-19T14:30:03;6.95;;;1.80;;
83020;SDS011;72837;47.418;19.394;2023-09-19T14:32:32;8.65;;;2.00;;
83020;SDS011;72837;47.418;19.394;2023-09-19T14:35:00;6.90;;;1.80;;
83020;SDS011;72837;47.418;19.394;2023-09-19T14:37:27;5.97;;;1.60;;
83020;SDS011;72837;47.418;19.394;2023-09-19T14:39:57;6.18;;;1.55;;
83020;SDS011;72837;47.418;19.394;2023-09-19T14:42:25;5.80;;;1.55;;
83020;SDS011;72837;47.418;19.394;2023-09-19T14:44:52;6.65;;;1.70;;
83020;SDS011;72837;47.418;19.394;2023-09-19T14:47:19;4.63;;;1.70;;
83020;SDS011;72837;47.418;19.394;2023-09-19T14:49:46;7.13;;;2.03;;
83020;SDS011;72837;47.418;19.394;2023-09-19T14:52:14;6.05;;;1.52;;
83020;SDS011;72837;47.418;19.394;2023-09-19T14:54:42;5.20;;;1.65;;
83020;SDS011;72837;47.418;19.394;2023-09-19T14:57:10;7.30;;;1.83;;
83020;SDS011;72837;47.418;19.394;2023-09-19T14:59:38;7.22;;;1.98;;
83020;SDS011;72837;47.418;19.394;2023-09-19T15:02:06;10.23;;;1.90;;
83020;SDS011;72837;47.418;19.394;2023-09-19T15:04:34;5.45;;;1.40;;
83020;SDS011;72837;47.418;19.394;2023-09-19T15:07:02;5.45;;;1.70;;
83020;SDS011;72837;47.418;19.394;2023-09-19T15:11:59;5.15;;;1.67;;
83020;SDS011;72837;47.418;19.394;2023-09-19T15:14:26;4.65;;;1.38;;
83020;SDS011;72837;47.418;19.394;2023-09-19T15:16:53;4.80;;;1.48;;
83020;SDS011;72837;47.418;19.394;2023-09-19T15:19:22;5.55;;;1.63;;
83020;SDS011;72837;47.418;19.394;2023-09-19T15:21:49;6.45;;;1.80;;
83020;SDS011;72837;47.418;19.394;2023-09-19T15:24:17;4.97;;;1.60;;
83020;SDS011;72837;47.418;19.394;2023-09-19T15:26:45;5.95;;;1.60;;
83020;SDS011;72837;47.418;19.394;2023-09-19T15:29:13;4.43;;;1.63;;
83020;SDS011;72837;47.418;19.394;2023-09-19T15:31:40;4.47;;;1.48;;
83020;SDS011;72837;47.418;19.394;2023-09-19T15:34:08;5.45;;;1.60;;
83020;SDS011;72837;47.418;19.394;2023-09-19T15:36:36;6.10;;;1.70;;
83020;SDS011;72837;47.418;19.394;2023-09-19T15:39:06;4.30;;;1.38;;
83020;SDS011;72837;47.418;19.394;2023-09-19T15:41:35;5.20;;;1.50;;
83020;SDS011;72837;47.418;19.394;2023-09-19T15:44:17;6.18;;;1.75;;
83020;SDS011;72837;47.418;19.394;2023-09-19T15:46:46;6.13;;;1.80;;
83020;SDS011;72837;47.418;19.394;2023-09-19T15:49:15;6.65;;;1.70;;
83020;SDS011;72837;47.418;19.394;2023-09-19T15:51:42;6.60;;;1.58;;
83020;SDS011;72837;47.418;19.394;2023-09-19T15:54:11;4.65;;;1.70;;
83020;SDS011;72837;47.418;19.394;2023-09-19T15:56:44;6.20;;;1.55;;
83020;SDS011;72837;47.418;19.394;2023-09-19T15:59:14;4.85;;;1.50;;
83020;SDS011;72837;47.418;19.394;2023-09-19T16:04:10;5.07;;;1.48;;
83020;SDS011;72837;47.418;19.394;2023-09-19T16:06:44;5.88;;;1.48;;
83020;SDS011;72837;47.418;19.394;2023-09-19T16:09:11;5.22;;;1.38;;
83020;SDS011;72837;47.418;19.394;2023-09-19T16:11:39;7.15;;;1.50;;
83020;SDS011;72837;47.418;19.394;2023-09-19T16:14:07;6.45;;;1.58;;
83020;SDS011;72837;47.418;19.394;2023-09-19T16:16:37;5.47;;;1.80;;
83020;SDS011;72837;47.418;19.394;2023-09-19T16:19:05;5.75;;;1.60;;
83020;SDS011;72837;47.418;19.394;2023-09-19T16:21:37;5.18;;;1.50;;